Aviation Digital Data Service (ADDS)

Output produced by METARs form (1833 UTC 19 April 2019)
found at http://www.aviationweather.gov/metar/data/
 
Forecast for: FTTJ (NDJAMENA (CIV/MI, TD)
Text: TAF FTTJ 191700Z 1918/2024 03006KT 6000 NSC
Forecast period: 1800 UTC 19 April 2019 to 0000 UTC 21 April 2019
Forecast type: FROM: standard forecast or significant change
Winds: from the NNE (30 degrees) at 7 MPH (6 knots; 3.1 m/s)
Visibility: 4 miles (6 km)
Ceiling: unknown
Clouds: missing
Weather: no significant weather forecast for this period